Weather at Yarrawonga Airport

Public forecast

Using degrees Celsius for public forecast. Weather courtesy of forecast.io.

Closest aviation weather report (METAR) to Yarrawonga Airport

Closest report is Wangaratta Airport, 26.9 nm (49.7 km) SSE. Retrieved 2021/01/18 06:00 UTC (28 minutes ago):

YWGT 180600Z AUTO 23015KT 9999 // NCD 28/01 Q1012

Closest aviation forecast (TAF) to Yarrawonga Airport

Closest forecast is Wangaratta Airport, 26.9 nm (49.7 km) SSE. Retrieved 2021-01-18 02:33 UTC (4 hours ago):

TAF YWGT 180120Z 1802/1814 23014KT CAVOK FM181000 20008KT CAVOK